sensor_id;sensor_type;location;lat;lon;timestamp;temperature;humidity
20815;DHT22;10568;48.176;16.316;2023-03-23T00:00:12;8.20;99.90
20815;DHT22;10568;48.176;16.316;2023-03-23T00:02:38;8.30;99.90
20815;DHT22;10568;48.176;16.316;2023-03-23T00:05:08;8.30;99.90
20815;DHT22;10568;48.176;16.316;2023-03-23T00:07:34;8.40;99.90
20815;DHT22;10568;48.176;16.316;2023-03-23T00:10:00;8.40;99.90
20815;DHT22;10568;48.176;16.316;2023-03-23T00:12:30;8.30;99.90
20815;DHT22;10568;48.176;16.316;2023-03-23T00:15:03;8.20;99.90
20815;DHT22;10568;48.176;16.316;2023-03-23T00:17:30;8.20;99.90
20815;DHT22;10568;48.176;16.316;2023-03-23T00:19:59;8.20;99.90
20815;DHT22;10568;48.176;16.316;2023-03-23T00:22:27;8.10;99.90
20815;DHT22;10568;48.176;16.316;2023-03-23T00:24:54;8.00;99.90
20815;DHT22;10568;48.176;16.316;2023-03-23T00:27:20;8.00;99.90
20815;DHT22;10568;48.176;16.316;2023-03-23T00:29:51;7.90;99.90
20815;DHT22;10568;48.176;16.316;2023-03-23T00:32:22;7.80;99.90
20815;DHT22;10568;48.176;16.316;2023-03-23T00:34:53;7.80;99.90
20815;DHT22;10568;48.176;16.316;2023-03-23T00:37:19;7.70;99.90
20815;DHT22;10568;48.176;16.316;2023-03-23T00:39:45;7.60;99.90
20815;DHT22;10568;48.176;16.316;2023-03-23T00:42:15;7.60;99.90
20815;DHT22;10568;48.176;16.316;2023-03-23T00:44:43;7.60;99.90
20815;DHT22;10568;48.176;16.316;2023-03-23T00:47:10;7.60;99.90
20815;DHT22;10568;48.176;16.316;2023-03-23T00:49:37;7.60;99.90
20815;DHT22;10568;48.176;16.316;2023-03-23T00:52:05;7.60;99.90
20815;DHT22;10568;48.176;16.316;2023-03-23T00:54:32;7.70;99.90
20815;DHT22;10568;48.176;16.316;2023-03-23T00:56:59;7.80;99.90
20815;DHT22;10568;48.176;16.316;2023-03-23T00:59:25;7.80;99.90
20815;DHT22;10568;48.176;16.316;2023-03-23T01:01:51;7.80;99.90
20815;DHT22;10568;48.176;16.316;2023-03-23T01:04:17;7.90;99.90
20815;DHT22;10568;48.176;16.316;2023-03-23T01:06:44;7.80;99.90
20815;DHT22;10568;48.176;16.316;2023-03-23T01:09:13;7.90;99.90
20815;DHT22;10568;48.176;16.316;2023-03-23T01:11:44;7.90;99.90
20815;DHT22;10568;48.176;16.316;2023-03-23T01:14:13;7.90;99.90
20815;DHT22;10568;48.176;16.316;2023-03-23T01:16:40;7.90;99.90
20815;DHT22;10568;48.176;16.316;2023-03-23T01:19:06;7.90;99.90
20815;DHT22;10568;48.176;16.316;2023-03-23T01:21:46;8.00;99.90
20815;DHT22;10568;48.176;16.316;2023-03-23T01:24:12;8.00;99.90
20815;DHT22;10568;48.176;16.316;2023-03-23T01:26:38;8.00;99.90
20815;DHT22;10568;48.176;16.316;2023-03-23T01:29:04;8.00;99.90
20815;DHT22;10568;48.176;16.316;2023-03-23T01:31:30;8.00;99.90
20815;DHT22;10568;48.176;16.316;2023-03-23T01:33:55;8.00;99.90
20815;DHT22;10568;48.176;16.316;2023-03-23T01:36:27;8.00;99.90
20815;DHT22;10568;48.176;16.316;2023-03-23T01:39:02;8.00;99.90
20815;DHT22;10568;48.176;16.316;2023-03-23T01:41:30;7.90;99.90
20815;DHT22;10568;48.176;16.316;2023-03-23T01:44:06;7.90;99.90
20815;DHT22;10568;48.176;16.316;2023-03-23T01:46:34;7.80;99.90
20815;DHT22;10568;48.176;16.316;2023-03-23T01:49:13;7.70;99.90
20815;DHT22;10568;48.176;16.316;2023-03-23T01:51:45;7.60;99.90
20815;DHT22;10568;48.176;16.316;2023-03-23T01:54:15;7.50;99.90
20815;DHT22;10568;48.176;16.316;2023-03-23T01:56:53;7.50;99.90
20815;DHT22;10568;48.176;16.316;2023-03-23T01:59:20;7.40;99.90
20815;DHT22;10568;48.176;16.316;2023-03-23T02:01:47;7.30;99.90
20815;DHT22;10568;48.176;16.316;2023-03-23T02:04:14;7.20;99.90
20815;DHT22;10568;48.176;16.316;2023-03-23T02:06:42;7.20;99.90
20815;DHT22;10568;48.176;16.316;2023-03-23T02:09:11;7.10;99.90
20815;DHT22;10568;48.176;16.316;2023-03-23T02:11:39;7.10;99.90
20815;DHT22;10568;48.176;16.316;2023-03-23T02:14:05;7.00;99.90
20815;DHT22;10568;48.176;16.316;2023-03-23T02:17:06;6.90;99.90
20815;DHT22;10568;48.176;16.316;2023-03-23T02:20:38;4.90;99.90
20815;DHT22;10568;48.176;16.316;2023-03-23T02:23:08;6.70;99.90
20815;DHT22;10568;48.176;16.316;2023-03-23T02:25:52;6.70;99.90
20815;DHT22;10568;48.176;16.316;2023-03-23T02:36:30;6.40;99.90
20815;DHT22;10568;48.176;16.316;2023-03-23T02:42:35;6.30;99.90
20815;DHT22;10568;48.176;16.316;2023-03-23T02:44:31;6.20;99.90
20815;DHT22;10568;48.176;16.316;2023-03-23T02:46:59;6.20;99.90
20815;DHT22;10568;48.176;16.316;2023-03-23T02:49:28;6.10;99.90
20815;DHT22;10568;48.176;16.316;2023-03-23T02:51:58;6.10;99.90
20815;DHT22;10568;48.176;16.316;2023-03-23T02:54:25;6.00;99.90
20815;DHT22;10568;48.176;16.316;2023-03-23T02:56:53;6.00;99.90
20815;DHT22;10568;48.176;16.316;2023-03-23T02:59:21;5.90;99.90
20815;DHT22;10568;48.176;16.316;2023-03-23T03:08:06;6.00;99.90
20815;DHT22;10568;48.176;16.316;2023-03-23T03:10:52;6.10;99.90
20815;DHT22;10568;48.176;16.316;2023-03-23T03:18:59;6.20;99.90
20815;DHT22;10568;48.176;16.316;2023-03-23T03:21:29;6.20;99.90
20815;DHT22;10568;48.176;16.316;2023-03-23T03:24:01;6.10;99.90
20815;DHT22;10568;48.176;16.316;2023-03-23T03:26:30;6.10;99.90
20815;DHT22;10568;48.176;16.316;2023-03-23T03:28:56;6.10;99.90
20815;DHT22;10568;48.176;16.316;2023-03-23T03:31:34;6.10;99.90
20815;DHT22;10568;48.176;16.316;2023-03-23T03:34:03;6.00;99.90
20815;DHT22;10568;48.176;16.316;2023-03-23T03:36:31;6.00;99.90
20815;DHT22;10568;48.176;16.316;2023-03-23T03:42:05;5.90;99.90
20815;DHT22;10568;48.176;16.316;2023-03-23T03:44:32;5.80;99.90
20815;DHT22;10568;48.176;16.316;2023-03-23T03:46:58;5.80;99.90
20815;DHT22;10568;48.176;16.316;2023-03-23T03:49:24;5.80;99.90
20815;DHT22;10568;48.176;16.316;2023-03-23T03:51:51;5.80;99.90
20815;DHT22;10568;48.176;16.316;2023-03-23T03:54:17;5.70;99.90
20815;DHT22;10568;48.176;16.316;2023-03-23T03:56:43;5.70;99.90
20815;DHT22;10568;48.176;16.316;2023-03-23T03:59:09;5.70;99.90
20815;DHT22;10568;48.176;16.316;2023-03-23T04:01:37;5.70;99.90
20815;DHT22;10568;48.176;16.316;2023-03-23T04:04:03;5.70;99.90
20815;DHT22;10568;48.176;16.316;2023-03-23T04:06:30;5.70;99.90
20815;DHT22;10568;48.176;16.316;2023-03-23T04:08:58;5.70;99.90
20815;DHT22;10568;48.176;16.316;2023-03-23T04:11:50;5.70;99.90
20815;DHT22;10568;48.176;16.316;2023-03-23T04:14:16;5.60;99.90
20815;DHT22;10568;48.176;16.316;2023-03-23T04:16:42;5.60;99.90
20815;DHT22;10568;48.176;16.316;2023-03-23T04:19:09;5.60;99.90
20815;DHT22;10568;48.176;16.316;2023-03-23T04:21:35;5.60;99.90
20815;DHT22;10568;48.176;16.316;2023-03-23T04:24:01;5.50;99.90
20815;DHT22;10568;48.176;16.316;2023-03-23T04:26:29;5.50;99.90
20815;DHT22;10568;48.176;16.316;2023-03-23T04:28:55;5.50;99.90
20815;DHT22;10568;48.176;16.316;2023-03-23T04:31:22;5.40;99.90
20815;DHT22;10568;48.176;16.316;2023-03-23T04:33:51;5.40;99.90
20815;DHT22;10568;48.176;16.316;2023-03-23T04:36:20;5.40;99.90
20815;DHT22;10568;48.176;16.316;2023-03-23T04:38:48;5.30;99.90
20815;DHT22;10568;48.176;16.316;2023-03-23T04:41:15;5.30;99.90
20815;DHT22;10568;48.176;16.316;2023-03-23T04:43:41;5.30;99.90
20815;DHT22;10568;48.176;16.316;2023-03-23T04:46:08;5.30;99.90
20815;DHT22;10568;48.176;16.316;2023-03-23T04:48:36;5.20;99.90
20815;DHT22;10568;48.176;16.316;2023-03-23T04:51:05;5.20;99.90
20815;DHT22;10568;48.176;16.316;2023-03-23T04:53:31;5.20;99.90
20815;DHT22;10568;48.176;16.316;2023-03-23T04:55:57;5.20;99.90
20815;DHT22;10568;48.176;16.316;2023-03-23T04:58:23;5.20;99.90
20815;DHT22;10568;48.176;16.316;2023-03-23T05:00:50;5.20;99.90
20815;DHT22;10568;48.176;16.316;2023-03-23T05:03:20;5.20;99.90
20815;DHT22;10568;48.176;16.316;2023-03-23T05:05:46;5.20;99.90
20815;DHT22;10568;48.176;16.316;2023-03-23T05:08:18;5.20;99.90
20815;DHT22;10568;48.176;16.316;2023-03-23T05:10:53;5.20;99.90
20815;DHT22;10568;48.176;16.316;2023-03-23T05:13:19;5.30;99.90
20815;DHT22;10568;48.176;16.316;2023-03-23T05:15:46;5.30;99.90
20815;DHT22;10568;48.176;16.316;2023-03-23T05:18:12;5.40;99.90
20815;DHT22;10568;48.176;16.316;2023-03-23T05:20:38;5.40;99.90
20815;DHT22;10568;48.176;16.316;2023-03-23T05:23:08;5.50;99.90
20815;DHT22;10568;48.176;16.316;2023-03-23T05:25:35;5.50;99.90
20815;DHT22;10568;48.176;16.316;2023-03-23T05:28:03;5.60;99.90
20815;DHT22;10568;48.176;16.316;2023-03-23T05:30:29;5.70;99.90
20815;DHT22;10568;48.176;16.316;2023-03-23T05:32:55;5.80;99.90
20815;DHT22;10568;48.176;16.316;2023-03-23T05:35:21;5.90;99.90
20815;DHT22;10568;48.176;16.316;2023-03-23T05:37:48;6.00;99.90
20815;DHT22;10568;48.176;16.316;2023-03-23T05:40:14;6.20;99.90
20815;DHT22;10568;48.176;16.316;2023-03-23T05:42:41;6.30;99.90
20815;DHT22;10568;48.176;16.316;2023-03-23T05:45:09;6.40;99.90
20815;DHT22;10568;48.176;16.316;2023-03-23T05:47:37;6.50;99.90
20815;DHT22;10568;48.176;16.316;2023-03-23T05:50:03;6.70;99.90
20815;DHT22;10568;48.176;16.316;2023-03-23T05:52:30;6.80;99.90
20815;DHT22;10568;48.176;16.316;2023-03-23T05:54:58;7.00;99.90
20815;DHT22;10568;48.176;16.316;2023-03-23T05:57:24;7.10;99.90
20815;DHT22;10568;48.176;16.316;2023-03-23T05:59:50;7.30;99.90
20815;DHT22;10568;48.176;16.316;2023-03-23T06:02:16;7.40;99.90
20815;DHT22;10568;48.176;16.316;2023-03-23T06:04:42;7.60;99.90
20815;DHT22;10568;48.176;16.316;2023-03-23T06:07:08;7.80;99.90
20815;DHT22;10568;48.176;16.316;2023-03-23T06:09:39;8.00;99.90
20815;DHT22;10568;48.176;16.316;2023-03-23T06:12:06;8.10;99.90
20815;DHT22;10568;48.176;16.316;2023-03-23T06:14:31;8.30;99.90
20815;DHT22;10568;48.176;16.316;2023-03-23T06:16:57;8.30;99.90
20815;DHT22;10568;48.176;16.316;2023-03-23T06:19:23;8.40;99.90
20815;DHT22;10568;48.176;16.316;2023-03-23T06:21:54;8.40;99.90
20815;DHT22;10568;48.176;16.316;2023-03-23T06:24:20;8.50;99.90
20815;DHT22;10568;48.176;16.316;2023-03-23T06:26:46;8.70;99.90
20815;DHT22;10568;48.176;16.316;2023-03-23T06:29:13;8.90;99.90
20815;DHT22;10568;48.176;16.316;2023-03-23T06:31:52;9.00;99.90
20815;DHT22;10568;48.176;16.316;2023-03-23T06:34:19;9.30;99.90
20815;DHT22;10568;48.176;16.316;2023-03-23T06:36:45;9.60;99.90
20815;DHT22;10568;48.176;16.316;2023-03-23T06:39:12;10.10;99.90
20815;DHT22;10568;48.176;16.316;2023-03-23T06:41:39;10.50;99.90
20815;DHT22;10568;48.176;16.316;2023-03-23T06:44:06;10.80;99.90
20815;DHT22;10568;48.176;16.316;2023-03-23T06:46:32;11.00;99.90
20815;DHT22;10568;48.176;16.316;2023-03-23T06:48:58;11.30;99.90
20815;DHT22;10568;48.176;16.316;2023-03-23T06:51:24;11.60;99.90
20815;DHT22;10568;48.176;16.316;2023-03-23T06:53:50;11.70;99.90
20815;DHT22;10568;48.176;16.316;2023-03-23T06:56:16;11.80;99.90
20815;DHT22;10568;48.176;16.316;2023-03-23T06:58:42;11.80;99.90
20815;DHT22;10568;48.176;16.316;2023-03-23T07:01:08;11.80;99.90
20815;DHT22;10568;48.176;16.316;2023-03-23T07:03:35;11.80;99.90
20815;DHT22;10568;48.176;16.316;2023-03-23T07:06:01;11.60;99.90
20815;DHT22;10568;48.176;16.316;2023-03-23T07:08:27;11.80;99.90
20815;DHT22;10568;48.176;16.316;2023-03-23T07:10:54;11.80;99.90
20815;DHT22;10568;48.176;16.316;2023-03-23T07:13:20;11.80;99.90
20815;DHT22;10568;48.176;16.316;2023-03-23T07:15:47;11.80;99.90
20815;DHT22;10568;48.176;16.316;2023-03-23T07:18:14;11.80;99.90
20815;DHT22;10568;48.176;16.316;2023-03-23T07:20:40;11.80;99.90
20815;DHT22;10568;48.176;16.316;2023-03-23T07:23:06;11.90;99.90
20815;DHT22;10568;48.176;16.316;2023-03-23T07:25:33;11.90;99.90
20815;DHT22;10568;48.176;16.316;2023-03-23T07:28:00;12.30;99.90
20815;DHT22;10568;48.176;16.316;2023-03-23T07:30:26;12.10;99.90
20815;DHT22;10568;48.176;16.316;2023-03-23T07:32:54;12.10;99.90
20815;DHT22;10568;48.176;16.316;2023-03-23T07:35:21;12.10;99.90
20815;DHT22;10568;48.176;16.316;2023-03-23T07:37:46;12.20;99.90
20815;DHT22;10568;48.176;16.316;2023-03-23T07:40:15;12.40;99.90
20815;DHT22;10568;48.176;16.316;2023-03-23T07:42:46;12.60;99.90
20815;DHT22;10568;48.176;16.316;2023-03-23T07:45:15;12.70;99.90
20815;DHT22;10568;48.176;16.316;2023-03-23T07:47:41;12.90;99.90
20815;DHT22;10568;48.176;16.316;2023-03-23T07:50:08;13.00;99.90
20815;DHT22;10568;48.176;16.316;2023-03-23T07:52:35;13.00;99.90
20815;DHT22;10568;48.176;16.316;2023-03-23T07:55:01;13.10;99.90
20815;DHT22;10568;48.176;16.316;2023-03-23T07:57:29;13.20;99.90
20815;DHT22;10568;48.176;16.316;2023-03-23T07:59:55;13.40;99.90
20815;DHT22;10568;48.176;16.316;2023-03-23T08:02:23;13.60;99.90
20815;DHT22;10568;48.176;16.316;2023-03-23T08:04:49;13.60;99.90
20815;DHT22;10568;48.176;16.316;2023-03-23T08:07:17;13.70;99.90
20815;DHT22;10568;48.176;16.316;2023-03-23T08:09:45;13.60;99.90
20815;DHT22;10568;48.176;16.316;2023-03-23T08:12:10;13.70;99.90
20815;DHT22;10568;48.176;16.316;2023-03-23T08:14:37;13.70;99.90
20815;DHT22;10568;48.176;16.316;2023-03-23T08:17:03;13.80;99.90
20815;DHT22;10568;48.176;16.316;2023-03-23T08:19:29;13.90;99.90
20815;DHT22;10568;48.176;16.316;2023-03-23T08:21:56;13.90;99.90
20815;DHT22;10568;48.176;16.316;2023-03-23T08:24:22;13.90;99.90
20815;DHT22;10568;48.176;16.316;2023-03-23T08:26:48;13.80;99.90
20815;DHT22;10568;48.176;16.316;2023-03-23T08:29:14;13.90;99.90
20815;DHT22;10568;48.176;16.316;2023-03-23T08:31:42;13.90;99.90
20815;DHT22;10568;48.176;16.316;2023-03-23T08:34:10;13.80;99.90
20815;DHT22;10568;48.176;16.316;2023-03-23T08:36:36;13.80;99.90
20815;DHT22;10568;48.176;16.316;2023-03-23T08:39:03;13.70;99.90
20815;DHT22;10568;48.176;16.316;2023-03-23T08:41:31;13.60;99.90
20815;DHT22;10568;48.176;16.316;2023-03-23T08:43:57;13.60;99.90
20815;DHT22;10568;48.176;16.316;2023-03-23T08:46:23;13.50;99.90
20815;DHT22;10568;48.176;16.316;2023-03-23T08:48:48;13.80;99.90
20815;DHT22;10568;48.176;16.316;2023-03-23T08:51:14;14.10;99.90
20815;DHT22;10568;48.176;16.316;2023-03-23T08:53:40;14.60;99.90
20815;DHT22;10568;48.176;16.316;2023-03-23T08:56:10;15.10;99.90
20815;DHT22;10568;48.176;16.316;2023-03-23T08:58:38;15.40;99.90
20815;DHT22;10568;48.176;16.316;2023-03-23T09:01:06;15.70;99.90
20815;DHT22;10568;48.176;16.316;2023-03-23T09:03:34;16.30;99.90
20815;DHT22;10568;48.176;16.316;2023-03-23T09:06:06;16.40;99.90
20815;DHT22;10568;48.176;16.316;2023-03-23T09:08:33;16.70;99.90
20815;DHT22;10568;48.176;16.316;2023-03-23T09:11:06;16.90;99.90
20815;DHT22;10568;48.176;16.316;2023-03-23T09:13:37;16.90;99.90
20815;DHT22;10568;48.176;16.316;2023-03-23T09:16:05;17.20;99.90
20815;DHT22;10568;48.176;16.316;2023-03-23T09:18:31;17.80;99.90
20815;DHT22;10568;48.176;16.316;2023-03-23T09:21:01;17.90;99.90
20815;DHT22;10568;48.176;16.316;2023-03-23T09:23:29;18.20;99.90
20815;DHT22;10568;48.176;16.316;2023-03-23T09:25:55;18.40;99.90
20815;DHT22;10568;48.176;16.316;2023-03-23T09:28:21;18.70;99.90
20815;DHT22;10568;48.176;16.316;2023-03-23T09:30:47;18.90;99.90
20815;DHT22;10568;48.176;16.316;2023-03-23T09:33:15;19.40;99.90
20815;DHT22;10568;48.176;16.316;2023-03-23T09:35:41;19.80;99.90
20815;DHT22;10568;48.176;16.316;2023-03-23T09:38:09;19.70;99.90
20815;DHT22;10568;48.176;16.316;2023-03-23T09:40:50;19.90;99.90
20815;DHT22;10568;48.176;16.316;2023-03-23T09:49:01;20.40;98.50
20815;DHT22;10568;48.176;16.316;2023-03-23T09:54:31;20.20;99.70
20815;DHT22;10568;48.176;16.316;2023-03-23T09:57:00;20.50;96.40
20815;DHT22;10568;48.176;16.316;2023-03-23T09:59:46;20.60;95.10
20815;DHT22;10568;48.176;16.316;2023-03-23T10:02:26;20.90;96.60
20815;DHT22;10568;48.176;16.316;2023-03-23T10:04:55;21.00;98.30
20815;DHT22;10568;48.176;16.316;2023-03-23T10:07:26;20.90;96.30
20815;DHT22;10568;48.176;16.316;2023-03-23T10:09:56;21.00;94.60
20815;DHT22;10568;48.176;16.316;2023-03-23T10:13:00;21.30;97.30
20815;DHT22;10568;48.176;16.316;2023-03-23T10:15:34;21.60;95.20
20815;DHT22;10568;48.176;16.316;2023-03-23T10:18:26;21.70;92.40
20815;DHT22;10568;48.176;16.316;2023-03-23T10:20:57;21.90;94.80
20815;DHT22;10568;48.176;16.316;2023-03-23T10:24:00;22.10;92.60
20815;DHT22;10568;48.176;16.316;2023-03-23T10:31:57;21.80;92.00
20815;DHT22;10568;48.176;16.316;2023-03-23T10:37:26;22.40;96.00
20815;DHT22;10568;48.176;16.316;2023-03-23T10:39:55;22.60;93.00
20815;DHT22;10568;48.176;16.316;2023-03-23T10:42:30;22.70;91.00
20815;DHT22;10568;48.176;16.316;2023-03-23T10:45:00;22.90;92.40
20815;DHT22;10568;48.176;16.316;2023-03-23T10:47:37;23.00;91.80
20815;DHT22;10568;48.176;16.316;2023-03-23T10:50:06;23.30;94.00
20815;DHT22;10568;48.176;16.316;2023-03-23T10:52:41;23.00;89.20
20815;DHT22;10568;48.176;16.316;2023-03-23T10:57:42;23.50;91.70
20815;DHT22;10568;48.176;16.316;2023-03-23T11:00:17;23.70;92.60
20815;DHT22;10568;48.176;16.316;2023-03-23T11:02:46;23.60;90.60
20815;DHT22;10568;48.176;16.316;2023-03-23T11:05:25;23.90;92.90
20815;DHT22;10568;48.176;16.316;2023-03-23T11:07:56;24.20;90.50
20815;DHT22;10568;48.176;16.316;2023-03-23T11:10:47;24.20;86.30
20815;DHT22;10568;48.176;16.316;2023-03-23T11:13:15;24.90;91.60
20815;DHT22;10568;48.176;16.316;2023-03-23T11:15:43;24.60;89.10
20815;DHT22;10568;48.176;16.316;2023-03-23T11:18:20;24.80;83.80
20815;DHT22;10568;48.176;16.316;2023-03-23T11:20:52;25.10;90.40
20815;DHT22;10568;48.176;16.316;2023-03-23T11:23:29;25.20;85.70
20815;DHT22;10568;48.176;16.316;2023-03-23T11:26:22;25.30;83.90
20815;DHT22;10568;48.176;16.316;2023-03-23T11:28:58;25.10;85.40
20815;DHT22;10568;48.176;16.316;2023-03-23T11:31:30;24.80;85.50
20815;DHT22;10568;48.176;16.316;2023-03-23T11:34:05;24.50;81.30
20815;DHT22;10568;48.176;16.316;2023-03-23T11:36:41;24.40;81.40
20815;DHT22;10568;48.176;16.316;2023-03-23T11:39:29;24.10;86.00
20815;DHT22;10568;48.176;16.316;2023-03-23T11:42:20;24.10;84.20
20815;DHT22;10568;48.176;16.316;2023-03-23T11:44:46;23.90;83.40
20815;DHT22;10568;48.176;16.316;2023-03-23T11:50:20;23.90;87.60
20815;DHT22;10568;48.176;16.316;2023-03-23T11:53:13;23.70;85.70
20815;DHT22;10568;48.176;16.316;2023-03-23T11:58:16;23.30;88.40
20815;DHT22;10568;48.176;16.316;2023-03-23T12:03:14;23.20;85.40
20815;DHT22;10568;48.176;16.316;2023-03-23T12:06:05;23.30;87.80
20815;DHT22;10568;48.176;16.316;2023-03-23T12:16:52;23.10;84.70
20815;DHT22;10568;48.176;16.316;2023-03-23T12:27:55;22.70;82.90
20815;DHT22;10568;48.176;16.316;2023-03-23T12:36:08;23.60;85.70
20815;DHT22;10568;48.176;16.316;2023-03-23T12:41:18;24.30;86.20
20815;DHT22;10568;48.176;16.316;2023-03-23T12:43:54;24.20;84.00
20815;DHT22;10568;48.176;16.316;2023-03-23T12:49:24;24.20;82.00
20815;DHT22;10568;48.176;16.316;2023-03-23T12:51:56;23.80;81.30
20815;DHT22;10568;48.176;16.316;2023-03-23T13:02:46;23.60;84.20
20815;DHT22;10568;48.176;16.316;2023-03-23T13:08:02;23.70;84.50
20815;DHT22;10568;48.176;16.316;2023-03-23T13:10:34;24.00;85.40
20815;DHT22;10568;48.176;16.316;2023-03-23T13:13:02;24.50;84.50
20815;DHT22;10568;48.176;16.316;2023-03-23T13:16:06;24.60;83.00
20815;DHT22;10568;48.176;16.316;2023-03-23T13:21:13;24.90;85.80
20815;DHT22;10568;48.176;16.316;2023-03-23T13:23:44;24.90;80.70
20815;DHT22;10568;48.176;16.316;2023-03-23T13:26:22;24.40;81.50
20815;DHT22;10568;48.176;16.316;2023-03-23T13:28:49;24.10;82.30
20815;DHT22;10568;48.176;16.316;2023-03-23T13:31:22;24.00;82.20
20815;DHT22;10568;48.176;16.316;2023-03-23T13:34:03;24.00;78.80
20815;DHT22;10568;48.176;16.316;2023-03-23T13:36:39;24.10;84.00
20815;DHT22;10568;48.176;16.316;2023-03-23T13:39:18;23.90;80.00
20815;DHT22;10568;48.176;16.316;2023-03-23T13:42:34;24.20;80.60
20815;DHT22;10568;48.176;16.316;2023-03-23T13:50:12;24.20;77.40
20815;DHT22;10568;48.176;16.316;2023-03-23T13:58:24;24.10;81.20
20815;DHT22;10568;48.176;16.316;2023-03-23T14:01:09;24.50;82.00
20815;DHT22;10568;48.176;16.316;2023-03-23T14:03:39;24.60;79.40
20815;DHT22;10568;48.176;16.316;2023-03-23T14:06:10;25.00;78.40
20815;DHT22;10568;48.176;16.316;2023-03-23T14:08:39;24.60;76.60
20815;DHT22;10568;48.176;16.316;2023-03-23T14:11:14;24.60;84.40
20815;DHT22;10568;48.176;16.316;2023-03-23T14:21:52;24.80;78.40
20815;DHT22;10568;48.176;16.316;2023-03-23T14:24:23;24.80;80.20
20815;DHT22;10568;48.176;16.316;2023-03-23T14:27:20;24.80;79.20
20815;DHT22;10568;48.176;16.316;2023-03-23T14:29:57;24.70;78.60
20815;DHT22;10568;48.176;16.316;2023-03-23T14:32:23;24.60;76.30
20815;DHT22;10568;48.176;16.316;2023-03-23T14:34:52;24.60;79.30
20815;DHT22;10568;48.176;16.316;2023-03-23T14:37:18;24.60;78.00
20815;DHT22;10568;48.176;16.316;2023-03-23T14:39:48;24.50;78.00
20815;DHT22;10568;48.176;16.316;2023-03-23T14:42:18;24.40;76.70
20815;DHT22;10568;48.176;16.316;2023-03-23T14:44:47;24.30;77.90
20815;DHT22;10568;48.176;16.316;2023-03-23T14:47:35;24.10;73.50
20815;DHT22;10568;48.176;16.316;2023-03-23T14:50:06;23.80;77.00
20815;DHT22;10568;48.176;16.316;2023-03-23T14:52:36;23.60;76.20
20815;DHT22;10568;48.176;16.316;2023-03-23T14:55:21;23.60;76.60
20815;DHT22;10568;48.176;16.316;2023-03-23T14:57:49;23.30;74.90
20815;DHT22;10568;48.176;16.316;2023-03-23T15:00:19;24.10;77.30
20815;DHT22;10568;48.176;16.316;2023-03-23T15:02:48;23.30;78.60
20815;DHT22;10568;48.176;16.316;2023-03-23T15:05:19;23.40;76.10
20815;DHT22;10568;48.176;16.316;2023-03-23T15:07:52;23.20;78.40
20815;DHT22;10568;48.176;16.316;2023-03-23T15:10:20;23.20;78.60
20815;DHT22;10568;48.176;16.316;2023-03-23T15:12:49;23.00;81.50
20815;DHT22;10568;48.176;16.316;2023-03-23T15:15:32;22.90;78.40
20815;DHT22;10568;48.176;16.316;2023-03-23T15:17:59;22.90;76.00
20815;DHT22;10568;48.176;16.316;2023-03-23T15:20:28;22.70;76.30
20815;DHT22;10568;48.176;16.316;2023-03-23T15:22:54;22.50;76.80
20815;DHT22;10568;48.176;16.316;2023-03-23T15:25:28;22.40;76.90
20815;DHT22;10568;48.176;16.316;2023-03-23T15:28:14;22.10;77.40
20815;DHT22;10568;48.176;16.316;2023-03-23T15:30:52;21.90;79.00
20815;DHT22;10568;48.176;16.316;2023-03-23T15:33:18;21.70;77.30
20815;DHT22;10568;48.176;16.316;2023-03-23T15:35:52;21.60;78.30
20815;DHT22;10568;48.176;16.316;2023-03-23T15:38:29;21.30;75.00
20815;DHT22;10568;48.176;16.316;2023-03-23T15:40:57;21.20;78.90
20815;DHT22;10568;48.176;16.316;2023-03-23T15:43:31;21.10;79.90
20815;DHT22;10568;48.176;16.316;2023-03-23T15:46:05;21.00;79.30
20815;DHT22;10568;48.176;16.316;2023-03-23T15:51:17;20.80;82.30
20815;DHT22;10568;48.176;16.316;2023-03-23T15:53:57;20.70;81.30
20815;DHT22;10568;48.176;16.316;2023-03-23T15:56:24;20.60;81.60
20815;DHT22;10568;48.176;16.316;2023-03-23T15:58:51;20.60;82.70
20815;DHT22;10568;48.176;16.316;2023-03-23T16:03:46;20.40;84.10
20815;DHT22;10568;48.176;16.316;2023-03-23T16:06:14;20.20;83.50
20815;DHT22;10568;48.176;16.316;2023-03-23T16:08:41;20.10;83.00
20815;DHT22;10568;48.176;16.316;2023-03-23T16:11:10;20.00;82.80
20815;DHT22;10568;48.176;16.316;2023-03-23T16:13:36;19.90;83.50
20815;DHT22;10568;48.176;16.316;2023-03-23T16:16:03;19.70;83.10
20815;DHT22;10568;48.176;16.316;2023-03-23T16:18:29;19.60;83.20
20815;DHT22;10568;48.176;16.316;2023-03-23T16:20:56;19.50;83.50
20815;DHT22;10568;48.176;16.316;2023-03-23T16:23:22;19.40;83.30
20815;DHT22;10568;48.176;16.316;2023-03-23T16:25:48;19.40;83.70
20815;DHT22;10568;48.176;16.316;2023-03-23T16:28:15;19.20;85.00
20815;DHT22;10568;48.176;16.316;2023-03-23T16:30:43;19.10;85.10
20815;DHT22;10568;48.176;16.316;2023-03-23T16:33:09;19.00;84.90
20815;DHT22;10568;48.176;16.316;2023-03-23T16:35:35;18.90;85.40
20815;DHT22;10568;48.176;16.316;2023-03-23T16:38:02;18.80;85.40
20815;DHT22;10568;48.176;16.316;2023-03-23T16:40:28;18.70;87.00
20815;DHT22;10568;48.176;16.316;2023-03-23T16:42:54;18.50;87.90
20815;DHT22;10568;48.176;16.316;2023-03-23T16:45:20;18.50;87.50
20815;DHT22;10568;48.176;16.316;2023-03-23T16:47:46;18.30;87.20
20815;DHT22;10568;48.176;16.316;2023-03-23T16:50:14;18.20;88.70
20815;DHT22;10568;48.176;16.316;2023-03-23T16:52:42;18.10;89.10
20815;DHT22;10568;48.176;16.316;2023-03-23T16:55:10;18.00;89.30
20815;DHT22;10568;48.176;16.316;2023-03-23T16:57:37;17.90;90.10
20815;DHT22;10568;48.176;16.316;2023-03-23T17:00:07;17.80;90.40
20815;DHT22;10568;48.176;16.316;2023-03-23T17:02:35;17.70;90.30
20815;DHT22;10568;48.176;16.316;2023-03-23T17:05:01;17.60;90.40
20815;DHT22;10568;48.176;16.316;2023-03-23T17:07:27;17.50;90.90
20815;DHT22;10568;48.176;16.316;2023-03-23T17:09:53;17.40;91.00
20815;DHT22;10568;48.176;16.316;2023-03-23T17:12:19;17.30;90.80
20815;DHT22;10568;48.176;16.316;2023-03-23T17:14:45;17.20;91.70
20815;DHT22;10568;48.176;16.316;2023-03-23T17:17:12;17.10;91.70
20815;DHT22;10568;48.176;16.316;2023-03-23T17:19:38;17.00;92.20
20815;DHT22;10568;48.176;16.316;2023-03-23T17:22:05;16.90;92.10
20815;DHT22;10568;48.176;16.316;2023-03-23T17:24:31;16.80;92.80
20815;DHT22;10568;48.176;16.316;2023-03-23T17:26:57;16.70;93.60
20815;DHT22;10568;48.176;16.316;2023-03-23T17:29:22;16.60;94.00
20815;DHT22;10568;48.176;16.316;2023-03-23T17:31:49;16.50;94.80
20815;DHT22;10568;48.176;16.316;2023-03-23T17:34:16;16.40;94.50
20815;DHT22;10568;48.176;16.316;2023-03-23T17:36:42;16.30;94.40
20815;DHT22;10568;48.176;16.316;2023-03-23T17:39:08;16.30;95.00